Startpagina
METAR-TAF:

METAR-TAF

Vliegvelden :

Luchthaven Irkoetsk

Irkoetsk, Rusland

breedte: 52-16N, lengte: 104-19E, hoogte: 513 m

Actueel weer

Dit bericht is 42 minuten geleden gemaakt, om 01:30 UTC
Wind 4 kt uit het noordoosten, variërend tussen het noordnoordoosten en het oosten
Temperatuur -24°C
Vochtigheid 83%
Druk 1023 hPa
Zicht: 0400 m
Geheel bewolkt op 200 ft
onderkoelde mist

METAR: UIII 180130Z 05002MPS 030V090 5000 0400SE FZFG OVC002 M24/M26 Q1023 R12/820350 NOSIG RMK QBB070 QFE725/0966

Tijdstip: 10:12 (02:12 UTC)

Verwachting

Dit bericht is 12 minuten geleden gemaakt, om 02:00 UTC
Verwachting geldig van 18 om 02 UTC tot 18 om 24 UTC
Wind 8 kt uit het oostnoordoosten
Zicht 10 km of meer
Gebroken wolken op 200 ft
Tijdelijke
van 18 om 02 UTC tot 18 om 04 UTC
Zicht: 0500 m
op 100 ft
onderkoelde mist
Wijzigt naar
van 18 om 04 UTC tot 18 om 05 UTC

TAF: UIII 180200Z 1802/1824 06004MPS 9999 BKN002 TEMPO 1802/1804 0500 FZFG VV001 BECMG 1804/1805 NSC

Waarnemingen en weersverwachtingen van meer dan 4000 vliegvelden (METAR en TAF).

De beschikbare stations zijn de gele en rode punten op de kaart.

Ga met uw muis naar het station om de naam te zien.

Klik dan om waarnemingen en weersverwachtingen te zien.

kaart wijzigen: klik op de groene knoppen met een zwart kruis om in te zoomen, op de groene knop met een streepje om uit te zoomen of op de groene pijlen voor aangrenzende kaarten.


METAR-TAF: